Time;durP1;ratioP1;P1;durP2;ratioP2;P2;SDS_P1;SDS_P2;PMS_P1;PMS_P2;Temp;Humidity;BMP_temperature;BMP_pressure;BME280_temperature;BME280_humidity;BME280_pressure;Samples;Min_cycle;Max_cycle;Signal;HPM_P1;HPM_P2
2023/07/25 00:01:19;;;;;;;4.30;1.15;;;21.90;72.90;;;;;;5030319;28;20049;-58
2023/07/25 00:03:47;;;;;;;2.20;0.80;;;21.90;72.90;;;;;;5030658;28;20469;-58
2023/07/25 00:06:13;;;;;;;;;;;21.90;72.90;;;;;;5030128;28;20052;-58
2023/07/25 00:08:38;;;;;;;1.92;1.00;;;21.90;72.80;;;;;;5031049;28;19925;-58
2023/07/25 00:11:04;;;;;;;2.67;1.17;;;21.90;72.90;;;;;;5032085;28;20041;-58
2023/07/25 00:13:30;;;;;;;2.42;1.15;;;21.90;72.90;;;;;;5032530;28;20440;-58
2023/07/25 00:15:56;;;;;;;2.47;1.17;;;21.90;72.90;;;;;;5035071;28;20041;-58
2023/07/25 00:18:21;;;;;;;2.42;1.15;;;21.90;72.90;;;;;;5034597;28;20044;-58
2023/07/25 00:20:47;;;;;;;3.50;1.30;;;21.90;72.90;;;;;;5034899;28;20057;-58
2023/07/25 00:23:13;;;;;;;2.03;1.00;;;21.90;72.90;;;;;;5035777;28;20085;-58
2023/07/25 00:25:38;;;;;;;2.92;1.10;;;21.90;72.80;;;;;;5034658;28;20053;-58
2023/07/25 00:28:04;;;;;;;1.90;1.15;;;21.90;72.80;;;;;;5035409;28;20120;-58
2023/07/25 00:30:29;;;;;;;2.65;1.10;;;21.90;72.80;;;;;;5034228;28;20493;-58
2023/07/25 00:32:55;;;;;;;1.80;1.15;;;21.90;72.80;;;;;;5034818;28;20042;-58
2023/07/25 00:35:21;;;;;;;1.90;0.88;;;21.90;73.30;;;;;;5035668;28;20049;-58
2023/07/25 00:37:46;;;;;;;2.40;1.08;;;21.90;72.70;;;;;;5035885;28;20045;-58
2023/07/25 00:40:12;;;;;;;2.88;1.10;;;21.90;72.70;;;;;;5032626;28;20072;-58
2023/07/25 00:42:38;;;;;;;2.35;0.90;;;21.90;72.70;;;;;;5033761;28;20057;-58
2023/07/25 00:45:04;;;;;;;2.10;1.05;;;21.80;72.60;;;;;;5029976;28;20038;-58
2023/07/25 00:47:29;;;;;;;2.92;1.10;;;21.90;72.70;;;;;;5022838;28;20136;-58
2023/07/25 00:49:55;;;;;;;2.58;0.95;;;21.80;72.60;;;;;;5014593;28;20125;-58
2023/07/25 00:52:21;;;;;;;2.13;1.13;;;21.80;72.60;;;;;;5015566;28;20042;-58
2023/07/25 00:54:47;;;;;;;2.42;1.10;;;21.80;72.60;;;;;;5011938;28;20104;-58
2023/07/25 00:57:16;;;;;;;1.63;1.00;;;21.80;72.60;;;;;;5015336;28;20052;-59
2023/07/25 00:59:42;;;;;;;3.40;1.40;;;21.80;72.50;;;;;;5015335;28;20056;-58
2023/07/25 01:02:08;;;;;;;1.80;0.98;;;21.80;72.50;;;;;;5014385;28;20054;-58
2023/07/25 01:04:36;;;;;;;1.92;1.10;;;21.80;72.50;;;;;;5013010;28;20113;-58
2023/07/25 01:07:01;;;;;;;2.05;0.90;;;21.80;72.50;;;;;;5013772;28;20046;-59
2023/07/25 01:09:41;;;;;;;1.65;0.90;;;21.80;72.50;;;;;;5012568;28;20128;-58
2023/07/25 01:12:07;;;;;;;2.35;0.90;;;21.80;72.40;;;;;;5014660;28;20041;-59
2023/07/25 01:14:33;;;;;;;1.77;0.90;;;21.80;72.50;;;;;;5013354;28;20045;-58
2023/07/25 01:17:10;;;;;;;2.70;1.00;;;21.80;72.50;;;;;;5012453;28;20042;-58
2023/07/25 01:19:36;;;;;;;2.58;1.00;;;21.80;72.40;;;;;;5013767;28;20084;-59
2023/07/25 01:22:02;;;;;;;2.47;1.02;;;21.80;72.50;;;;;;5013725;28;20089;-59
2023/07/25 01:24:27;;;;;;;2.40;0.95;;;21.80;72.40;;;;;;5013876;28;20147;-59
2023/07/25 01:26:53;;;;;;;2.50;1.00;;;21.80;72.40;;;;;;5013612;28;20104;-59
2023/07/25 01:29:18;;;;;;;1.75;0.82;;;21.80;72.50;;;;;;5014191;28;20049;-58
2023/07/25 01:31:44;;;;;;;2.95;1.20;;;21.80;72.40;;;;;;5013372;28;20076;-59
2023/07/25 01:34:10;;;;;;;1.92;0.93;;;21.70;72.40;;;;;;5015043;28;20049;-59
2023/07/25 01:36:35;;;;;;;2.25;1.15;;;21.70;72.40;;;;;;5014374;28;20069;-58
2023/07/25 01:39:01;;;;;;;2.58;1.27;;;21.70;72.30;;;;;;5013827;28;20117;-58
2023/07/25 01:41:26;;;;;;;2.00;1.10;;;21.70;72.30;;;;;;5012099;28;20188;-58
2023/07/25 01:43:52;;;;;;;2.30;1.08;;;21.70;72.30;;;;;;5013824;28;20038;-59
2023/07/25 01:46:17;;;;;;;2.30;1.02;;;21.70;72.30;;;;;;5014610;28;20485;-59
2023/07/25 01:48:43;;;;;;;2.25;1.08;;;21.70;72.30;;;;;;5013740;28;20042;-58
2023/07/25 01:51:09;;;;;;;1.98;1.00;;;21.70;72.30;;;;;;5013611;28;20053;-58
2023/07/25 01:53:34;;;;;;;1.83;1.20;;;21.70;72.30;;;;;;5018729;28;20039;-58
2023/07/25 01:56:00;;;;;;;1.75;0.90;;;21.70;72.30;;;;;;5033541;28;20049;-58
2023/07/25 01:58:25;;;;;;;3.25;1.20;;;21.70;72.30;;;;;;5032603;28;20080;-58
2023/07/25 02:00:58;;;;;;;1.80;0.95;;;21.70;72.20;;;;;;5033955;28;20092;-58
2023/07/25 02:03:23;;;;;;;2.92;1.20;;;21.70;72.30;;;;;;5032703;28;20096;-59
2023/07/25 02:05:50;;;;;;;2.85;1.20;;;21.70;72.30;;;;;;5031952;28;20079;-59
2023/07/25 02:08:16;;;;;;;1.75;0.80;;;21.70;72.30;;;;;;5033513;28;20560;-59
2023/07/25 02:10:41;;;;;;;2.28;1.00;;;21.70;72.20;;;;;;5032815;28;20053;-59
2023/07/25 02:13:07;;;;;;;2.58;1.10;;;21.70;72.20;;;;;;5032597;28;20128;-58
2023/07/25 02:15:32;;;;;;;2.75;0.82;;;21.60;72.20;;;;;;5034164;28;20034;-58
2023/07/25 02:17:58;;;;;;;2.45;1.00;;;21.60;72.10;;;;;;5032938;28;20041;-58
2023/07/25 02:20:25;;;;;;;2.33;1.00;;;21.60;72.20;;;;;;5033165;28;20440;-59
2023/07/25 02:22:51;;;;;;;1.83;1.02;;;21.60;72.10;;;;;;5032794;28;20619;-59
2023/07/25 02:25:17;;;;;;;0.95;0.70;;;21.60;72.10;;;;;;5033838;28;20037;-58
2023/07/25 02:27:42;;;;;;;2.60;1.25;;;21.60;72.10;;;;;;5033045;28;20052;-58
2023/07/25 02:30:08;;;;;;;1.50;0.88;;;21.60;72.10;;;;;;5034077;28;20454;-59
2023/07/25 02:32:34;;;;;;;2.00;0.90;;;21.60;72.10;;;;;;5032805;28;20038;-58
2023/07/25 02:34:59;;;;;;;1.33;0.80;;;21.60;72.10;;;;;;5033388;28;20044;-58
2023/07/25 02:37:25;;;;;;;4.78;0.88;;;21.60;72.10;;;;;;5032836;28;20125;-58
2023/07/25 02:39:50;;;;;;;2.03;1.10;;;21.60;72.10;;;;;;5033179;28;20037;-58
2023/07/25 02:42:16;;;;;;;2.38;0.95;;;21.60;72.70;;;;;;5032681;28;20129;-58
2023/07/25 02:44:41;;;;;;;1.92;1.00;;;21.60;72.10;;;;;;5031917;28;20045;-59
2023/07/25 02:47:07;;;;;;;3.60;0.93;;;21.60;72.00;;;;;;5032510;28;20183;-59
2023/07/25 02:49:33;;;;;;;1.92;0.93;;;21.60;72.00;;;;;;5031914;28;20045;-58
2023/07/25 02:51:58;;;;;;;2.13;1.10;;;21.60;72.00;;;;;;5033011;28;20496;-58
2023/07/25 02:54:24;;;;;;;2.03;0.70;;;21.60;72.00;;;;;;5031536;28;20826;-59
2023/07/25 02:56:49;;;;;;;2.90;1.08;;;21.60;72.00;;;;;;5033019;28;20050;-59
2023/07/25 02:59:15;;;;;;;1.58;0.95;;;21.50;71.90;;;;;;5033507;28;20052;-58
2023/07/25 03:01:40;;;;;;;1.40;0.80;;;21.50;71.90;;;;;;5031903;28;20132;-58
2023/07/25 03:04:06;;;;;;;2.00;1.00;;;21.50;71.90;;;;;;5033397;28;20073;-58
2023/07/25 03:06:32;;;;;;;1.60;1.00;;;21.50;71.90;;;;;;5031488;28;20072;-58
2023/07/25 03:08:57;;;;;;;2.05;1.00;;;21.50;71.90;;;;;;5032306;28;20038;-58
2023/07/25 03:11:23;;;;;;;3.17;1.00;;;21.50;71.80;;;;;;5032035;28;20045;-60
2023/07/25 03:13:49;;;;;;;1.52;1.00;;;21.50;71.80;;;;;;5031856;28;20607;-59
2023/07/25 03:16:14;;;;;;;1.90;1.05;;;21.50;72.40;;;;;;5032110;28;20069;-59
2023/07/25 03:18:40;;;;;;;2.67;1.10;;;21.50;71.80;;;;;;5032298;28;20103;-59
2023/07/25 03:21:05;;;;;;;1.95;0.98;;;21.50;71.80;;;;;;5031430;28;20053;-59
2023/07/25 03:23:31;;;;;;;1.88;1.10;;;21.50;71.80;;;;;;5032249;28;20103;-59
2023/07/25 03:25:57;;;;;;;1.52;0.82;;;21.50;71.80;;;;;;5031152;28;20485;-59
2023/07/25 03:28:22;;;;;;;1.75;1.15;;;21.50;71.70;;;;;;5033145;28;20111;-59
2023/07/25 03:30:48;;;;;;;3.10;1.10;;;21.50;71.70;;;;;;5032001;28;20056;-60
2023/07/25 03:33:13;;;;;;;1.58;0.80;;;21.50;71.70;;;;;;5032558;28;20041;-60
2023/07/25 03:35:39;;;;;;;2.55;1.20;;;21.50;71.70;;;;;;5031971;28;20460;-60
2023/07/25 03:38:04;;;;;;;2.05;0.98;;;21.50;71.70;;;;;;5030992;28;20048;-59
2023/07/25 03:40:30;;;;;;;2.35;0.88;;;21.50;71.70;;;;;;5032621;28;20486;-60
2023/07/25 03:42:55;;;;;;;2.33;0.98;;;21.50;71.60;;;;;;5032310;28;20041;-59
2023/07/25 03:45:21;;;;;;;2.33;1.10;;;21.50;71.60;;;;;;5032230;28;20048;-60
2023/07/25 03:47:47;;;;;;;2.03;1.00;;;21.50;71.60;;;;;;5032554;28;20045;-60
2023/07/25 03:50:12;;;;;;;2.83;1.20;;;21.50;71.60;;;;;;5036455;28;20069;-59
2023/07/25 03:52:38;;;;;;;1.75;1.00;;;21.50;71.60;;;;;;5035883;28;20065;-60
2023/07/25 03:55:04;;;;;;;2.40;1.05;;;21.40;71.50;;;;;;5036710;28;20045;-60
2023/07/25 03:57:29;;;;;;;2.60;1.15;;;21.40;71.50;;;;;;5034933;28;20045;-59
2023/07/25 03:59:55;;;;;;;2.03;1.08;;;21.40;71.50;;;;;;5036494;28;20096;-59
2023/07/25 04:02:20;;;;;;;2.35;1.00;;;21.40;71.50;;;;;;5034554;28;20485;-59
2023/07/25 04:04:46;;;;;;;3.58;1.10;;;21.40;71.50;;;;;;5035030;28;20037;-59
2023/07/25 04:07:11;;;;;;;2.03;1.10;;;21.40;71.50;;;;;;5036303;28;20029;-60
2023/07/25 04:09:37;;;;;;;2.03;1.05;;;21.40;71.50;;;;;;5035882;28;20443;-59
2023/07/25 04:12:03;;;;;;;1.73;0.82;;;21.40;71.50;;;;;;5034748;28;20041;-60
2023/07/25 04:14:29;;;;;;;3.03;0.80;;;21.40;71.50;;;;;;5036690;28;20041;-60
2023/07/25 04:16:54;;;;;;;2.47;1.00;;;21.40;71.40;;;;;;5035727;28;20044;-60
2023/07/25 04:19:20;;;;;;;1.88;1.00;;;21.40;71.50;;;;;;5035921;28;20041;-59
2023/07/25 04:21:46;;;;;;;2.17;1.00;;;21.40;71.40;;;;;;5034587;28;20092;-60
2023/07/25 04:24:11;;;;;;;1.60;1.00;;;21.40;71.40;;;;;;5035742;28;20053;-60
2023/07/25 04:26:37;;;;;;;2.10;0.93;;;21.40;71.40;;;;;;5035181;28;20045;-59
2023/07/25 04:29:02;;;;;;;2.63;1.00;;;21.40;71.40;;;;;;5036379;28;20088;-60
2023/07/25 04:31:28;;;;;;;1.50;0.82;;;21.40;71.40;;;;;;5035226;28;20164;-59
2023/07/25 04:33:54;;;;;;;1.58;0.80;;;21.40;71.30;;;;;;5035224;28;20067;-59
2023/07/25 04:36:19;;;;;;;1.92;0.88;;;21.40;71.30;;;;;;5036150;28;20053;-59
2023/07/25 04:38:45;;;;;;;1.70;0.85;;;21.40;71.30;;;;;;5033714;28;20123;-59
2023/07/25 04:41:10;;;;;;;3.22;0.95;;;21.40;71.30;;;;;;5034255;28;20048;-60
2023/07/25 04:43:36;;;;;;;2.00;0.90;;;21.40;71.30;;;;;;5034446;28;20470;-60
2023/07/25 04:46:01;;;;;;;1.52;0.80;;;21.40;71.30;;;;;;5034330;28;20523;-60
2023/07/25 04:48:27;;;;;;;2.20;1.08;;;21.40;71.20;;;;;;5034690;28;20575;-59
2023/07/25 04:50:53;;;;;;;2.03;0.98;;;21.40;71.20;;;;;;5034059;28;20358;-60
2023/07/25 04:53:18;;;;;;;3.13;1.23;;;21.40;71.20;;;;;;5035554;28;20049;-60
2023/07/25 04:55:44;;;;;;;2.80;1.17;;;21.40;71.20;;;;;;5033320;28;20045;-59
2023/07/25 04:58:09;;;;;;;1.77;0.93;;;21.40;71.20;;;;;;5034887;28;20488;-59
2023/07/25 05:00:35;;;;;;;2.55;0.95;;;21.40;71.20;;;;;;5033794;28;20042;-59
2023/07/25 05:03:01;;;;;;;1.70;0.85;;;21.40;71.20;;;;;;5035036;28;20041;-59
2023/07/25 05:05:26;;;;;;;1.52;0.90;;;21.30;71.10;;;;;;5035360;28;20060;-59
2023/07/25 05:07:52;;;;;;;2.92;1.10;;;21.30;71.10;;;;;;5034411;28;20037;-59
2023/07/25 05:10:17;;;;;;;1.52;0.82;;;21.30;71.10;;;;;;5035380;28;20103;-59
2023/07/25 05:12:43;;;;;;;2.10;0.90;;;21.30;71.10;;;;;;5033878;28;20047;-59
2023/07/25 05:15:09;;;;;;;1.58;0.88;;;21.30;71.10;;;;;;5034301;28;20491;-60
2023/07/25 05:17:34;;;;;;;2.22;1.00;;;21.30;71.10;;;;;;5033043;28;20053;-60
2023/07/25 05:20:00;;;;;;;2.00;1.00;;;21.40;71.20;;;;;;5035209;28;20384;-59
2023/07/25 05:22:25;;;;;;;1.90;0.85;;;21.30;71.10;;;;;;5034174;28;20120;-59
2023/07/25 05:24:51;;;;;;;2.28;1.17;;;21.30;71.10;;;;;;5035100;28;20053;-59
2023/07/25 05:27:17;;;;;;;1.48;0.73;;;21.30;71.10;;;;;;5034018;28;20041;-59
2023/07/25 05:29:42;;;;;;;2.30;0.90;;;21.30;71.10;;;;;;5033985;28;20534;-59
2023/07/25 05:32:08;;;;;;;1.88;1.00;;;21.30;71.10;;;;;;5034664;28;20128;-60
2023/07/25 05:34:33;;;;;;;1.63;0.85;;;21.30;71.10;;;;;;5034197;28;20045;-59
2023/07/25 05:37:00;;;;;;;1.88;0.80;;;21.30;71.10;;;;;;5033567;28;20076;-59
2023/07/25 05:39:25;;;;;;;3.60;1.00;;;21.30;71.10;;;;;;5035034;28;20045;-59
2023/07/25 05:41:51;;;;;;;1.75;0.90;;;21.30;71.00;;;;;;5034146;28;20464;-59
2023/07/25 05:44:16;;;;;;;1.58;0.77;;;21.30;71.10;;;;;;5034140;28;20048;-59
2023/07/25 05:46:42;;;;;;;2.15;0.95;;;21.30;71.10;;;;;;5032873;28;20341;-60
2023/07/25 05:49:08;;;;;;;1.83;1.00;;;21.30;71.10;;;;;;5034701;28;20104;-59
2023/07/25 05:51:33;;;;;;;2.15;1.00;;;21.30;71.70;;;;;;5033390;28;20121;-59
2023/07/25 05:53:59;;;;;;;1.52;0.82;;;21.30;71.70;;;;;;5034822;28;20033;-58
2023/07/25 05:56:24;;;;;;;1.73;0.93;;;21.30;71.10;;;;;;5033808;28;20045;-59
2023/07/25 05:58:50;;;;;;;1.42;0.90;;;21.30;71.10;;;;;;5033727;28;20049;-58
2023/07/25 06:01:16;;;;;;;1.45;0.70;;;21.30;71.10;;;;;;5034228;28;20048;-58
2023/07/25 06:03:41;;;;;;;1.58;0.77;;;21.30;71.20;;;;;;5033822;28;20149;-58
2023/07/25 06:06:07;;;;;;;1.67;0.70;;;21.30;71.30;;;;;;5033837;28;20481;-57
2023/07/25 06:08:32;;;;;;;4.07;1.10;;;21.30;71.40;;;;;;5034426;28;20049;-58
2023/07/25 06:10:58;;;;;;;3.22;1.05;;;21.30;71.30;;;;;;5033462;28;20053;-58
2023/07/25 06:13:24;;;;;;;6.07;1.10;;;21.30;71.30;;;;;;5032379;28;20041;-59
2023/07/25 06:15:50;;;;;;;3.03;1.10;;;21.30;71.40;;;;;;5033589;28;20041;-58
2023/07/25 06:18:15;;;;;;;4.78;1.13;;;21.30;71.60;;;;;;5033200;28;20038;-58
2023/07/25 06:20:41;;;;;;;6.32;1.17;;;21.30;71.70;;;;;;5033704;28;20066;-58
2023/07/25 06:23:06;;;;;;;2.58;1.20;;;21.40;71.80;;;;;;5033446;28;20081;-57
2023/07/25 06:25:32;;;;;;;3.53;0.90;;;21.40;71.80;;;;;;5030729;28;20506;-57
2023/07/25 06:27:58;;;;;;;4.85;1.08;;;21.40;71.90;;;;;;5033301;28;20144;-58
2023/07/25 06:30:23;;;;;;;4.30;1.20;;;21.40;71.90;;;;;;5033009;28;20052;-58
2023/07/25 06:32:49;;;;;;;3.85;1.13;;;21.40;72.10;;;;;;5031495;28;20045;-57
2023/07/25 06:35:14;;;;;;;4.03;1.13;;;21.50;72.10;;;;;;5033538;28;20065;-58
2023/07/25 06:37:40;;;;;;;4.43;0.90;;;21.50;72.10;;;;;;5032585;28;20045;-58
2023/07/25 06:40:06;;;;;;;6.53;1.02;;;21.50;72.10;;;;;;5032896;28;20045;-58
2023/07/25 06:42:32;;;;;;;3.00;1.00;;;21.50;72.20;;;;;;5033219;28;20037;-57
2023/07/25 06:44:57;;;;;;;4.15;1.10;;;21.50;72.20;;;;;;5032839;28;20495;-57
2023/07/25 06:47:23;;;;;;;6.05;1.00;;;21.50;72.20;;;;;;5032540;28;20056;-58
2023/07/25 06:49:49;;;;;;;4.07;1.10;;;21.50;72.20;;;;;;5033387;28;20127;-58
2023/07/25 06:52:14;;;;;;;4.22;1.23;;;21.60;72.30;;;;;;5031884;28;20069;-59
2023/07/25 06:54:40;;;;;;;3.58;1.10;;;21.60;72.30;;;;;;5032047;28;20045;-58
2023/07/25 06:57:06;;;;;;;3.58;1.00;;;21.60;72.40;;;;;;5013374;28;20062;-59
2023/07/25 06:59:32;;;;;;;2.20;1.00;;;21.60;72.30;;;;;;5013250;28;20076;-59
2023/07/25 07:01:57;;;;;;;7.47;1.30;;;21.60;72.30;;;;;;5012603;28;20046;-58
2023/07/25 07:04:23;;;;;;;2.08;1.08;;;21.60;72.30;;;;;;5013489;28;20046;-59
2023/07/25 07:06:48;;;;;;;3.63;1.15;;;21.70;72.40;;;;;;5012932;28;20053;-58
2023/07/25 07:09:14;;;;;;;5.00;1.15;;;21.70;72.40;;;;;;5012530;28;20049;-58
2023/07/25 07:11:40;;;;;;;4.38;1.13;;;21.70;72.30;;;;;;5011685;28;20162;-58
2023/07/25 07:14:06;;;;;;;3.20;1.20;;;21.70;72.30;;;;;;5010934;28;20048;-58
2023/07/25 07:16:31;;;;;;;4.40;1.45;;;21.70;72.30;;;;;;5009646;28;20500;-58
2023/07/25 07:18:57;;;;;;;2.85;1.10;;;21.70;72.30;;;;;;5012838;28;20041;-58
2023/07/25 07:21:22;;;;;;;2.05;0.95;;;21.80;72.40;;;;;;5031190;28;20085;-58
2023/07/25 07:23:48;;;;;;;4.13;1.00;;;21.80;72.40;;;;;;5030654;28;20064;-58
2023/07/25 07:26:14;;;;;;;6.05;1.27;;;21.80;72.40;;;;;;5032225;28;20124;-58
2023/07/25 07:28:39;;;;;;;4.90;1.10;;;21.80;72.40;;;;;;5031677;28;20037;-58
2023/07/25 07:31:08;;;;;;;2.85;1.10;;;21.80;72.50;;;;;;5031897;28;20041;-58
2023/07/25 07:33:34;;;;;;;4.88;1.10;;;21.80;72.40;;;;;;5032385;28;20050;-58
2023/07/25 07:35:59;;;;;;;4.85;1.40;;;21.80;72.40;;;;;;5031769;28;20049;-58
2023/07/25 07:38:25;;;;;;;3.38;1.50;;;21.80;72.40;;;;;;5032378;28;20458;-58
2023/07/25 07:40:51;;;;;;;5.18;1.08;;;21.80;72.40;;;;;;5031849;28;20033;-58
2023/07/25 07:43:16;;;;;;;2.50;0.93;;;21.90;72.50;;;;;;5030678;28;20412;-58
2023/07/25 07:45:42;;;;;;;2.65;1.00;;;21.90;72.50;;;;;;5031022;28;20081;-58
2023/07/25 07:48:07;;;;;;;5.28;1.05;;;21.90;72.50;;;;;;5031687;28;20042;-58
2023/07/25 07:50:33;;;;;;;3.88;1.30;;;21.90;72.50;;;;;;5031450;28;20049;-58
2023/07/25 07:52:59;;;;;;;2.63;0.90;;;21.90;72.50;;;;;;5032578;28;20128;-58
2023/07/25 07:55:25;;;;;;;3.85;1.00;;;21.90;72.50;;;;;;5032105;28;20491;-58
2023/07/25 07:57:50;;;;;;;4.47;1.17;;;21.90;72.50;;;;;;5031742;28;20045;-57
2023/07/25 08:00:16;;;;;;;5.10;0.95;;;21.90;72.30;;;;;;5031970;28;20045;-60
2023/07/25 08:02:42;;;;;;;3.50;1.00;;;21.90;72.20;;;;;;5031431;28;20499;-58
2023/07/25 08:05:08;;;;;;;5.50;1.00;;;22.00;72.20;;;;;;5029208;28;20041;-58
2023/07/25 08:07:34;;;;;;;3.97;1.10;;;22.00;72.20;;;;;;5031713;28;20087;-58
2023/07/25 08:10:00;;;;;;;5.38;1.00;;;22.00;72.10;;;;;;5028725;28;20049;-58
2023/07/25 08:12:25;;;;;;;3.67;1.05;;;22.00;72.00;;;;;;5031020;28;20052;-58
2023/07/25 08:14:51;;;;;;;3.33;1.00;;;22.00;72.00;;;;;;5027802;28;20049;-57
2023/07/25 08:17:18;;;;;;;3.30;1.10;;;22.00;72.00;;;;;;5018003;28;20037;-58
2023/07/25 08:19:44;;;;;;;3.05;0.88;;;22.00;72.00;;;;;;5012224;28;20041;-59
2023/07/25 08:22:10;;;;;;;2.58;1.10;;;22.00;71.90;;;;;;5011292;28;20072;-58
2023/07/25 08:24:37;;;;;;;5.55;1.15;;;22.00;71.90;;;;;;5027210;28;20099;-58
2023/07/25 08:27:03;;;;;;;4.47;0.90;;;22.10;71.90;;;;;;5019776;28;20091;-58
2023/07/25 08:29:28;;;;;;;3.78;1.08;;;22.10;71.80;;;;;;5021216;28;20049;-58
2023/07/25 08:31:54;;;;;;;3.78;1.05;;;22.10;71.90;;;;;;5020107;28;20099;-58
2023/07/25 08:34:20;;;;;;;5.88;1.25;;;22.20;72.00;;;;;;5024598;28;20045;-58
2023/07/25 08:36:46;;;;;;;4.88;1.00;;;22.20;72.00;;;;;;5016032;28;20199;-58
2023/07/25 08:39:12;;;;;;;4.82;1.10;;;22.20;72.00;;;;;;5014936;28;20543;-58
2023/07/25 08:41:43;;;;;;;4.25;1.23;;;22.20;72.00;;;;;;5015692;28;20085;-59
2023/07/25 08:44:10;;;;;;;4.85;1.10;;;22.20;72.00;;;;;;4998122;28;20394;-58
2023/07/25 08:46:35;;;;;;;8.82;1.52;;;22.20;72.00;;;;;;5015018;28;20043;-58
2023/07/25 08:49:02;;;;;;;5.80;1.88;;;22.20;72.00;;;;;;5025946;28;20048;-58
2023/07/25 08:51:28;;;;;;;5.72;1.50;;;22.20;72.10;;;;;;5028394;28;20413;-58
2023/07/25 08:54:02;;;;;;;4.32;1.23;;;22.20;72.00;;;;;;5033689;28;20046;-58
2023/07/25 08:56:28;;;;;;;3.92;1.10;;;22.20;72.00;;;;;;5031857;28;20041;-59
2023/07/25 08:58:54;;;;;;;2.90;1.15;;;22.20;72.00;;;;;;5029529;28;20100;-59
2023/07/25 09:01:20;;;;;;;4.82;0.95;;;22.20;72.00;;;;;;5040143;28;20034;-59
2023/07/25 09:03:46;;;;;;;5.63;1.30;;;22.20;72.00;;;;;;5030554;28;20041;-59
2023/07/25 09:06:12;;;;;;;5.28;1.13;;;22.20;72.00;;;;;;5022510;28;20140;-58
2023/07/25 09:08:38;;;;;;;5.53;1.90;;;22.20;72.00;;;;;;5014284;28;20390;-58
2023/07/25 09:11:04;;;;;;;5.90;0.98;;;22.20;72.10;;;;;;5023230;28;20050;-59
2023/07/25 09:13:29;;;;;;;4.95;1.20;;;22.20;72.10;;;;;;5043698;28;20056;-59
2023/07/25 09:15:55;;;;;;;4.60;1.20;;;22.20;72.10;;;;;;5031090;28;20041;-59
2023/07/25 09:18:21;;;;;;;2.38;1.00;;;22.20;72.10;;;;;;5033876;28;20080;-59
2023/07/25 09:20:46;;;;;;;4.35;1.00;;;22.20;72.10;;;;;;5031184;28;20136;-59
2023/07/25 09:23:21;;;;;;;3.97;1.00;;;22.20;72.00;;;;;;5034072;28;20095;-59
2023/07/25 09:25:47;;;;;;;4.78;0.93;;;22.20;71.90;;;;;;5034822;28;20542;-59
2023/07/25 09:28:13;;;;;;;6.13;1.20;;;22.20;71.70;;;;;;5034576;28;20046;-58
2023/07/25 09:30:45;;;;;;;2.95;0.75;;;22.20;71.70;;;;;;5034467;28;20096;-58
2023/07/25 09:33:25;;;;;;;4.13;1.00;;;22.20;71.60;;;;;;5033424;28;20136;-58
2023/07/25 09:35:51;;;;;;;7.63;1.05;;;22.20;71.50;;;;;;5032940;28;20068;-59
2023/07/25 09:38:17;;;;;;;6.43;1.08;;;22.20;71.40;;;;;;5034719;28;20073;-60
2023/07/25 09:40:44;;;;;;;5.05;1.13;;;22.20;71.30;;;;;;5034063;28;20052;-59
2023/07/25 09:43:20;;;;;;;4.22;1.05;;;22.20;71.10;;;;;;5033007;28;20041;-58
2023/07/25 09:45:46;;;;;;;7.40;1.23;;;22.20;70.70;;;;;;5032513;28;20080;-58
2023/07/25 09:48:11;;;;;;;4.32;1.10;;;22.20;70.10;;;;;;5032255;28;20396;-59
2023/07/25 09:50:38;;;;;;;4.50;1.08;;;22.20;69.40;;;;;;5032356;28;20041;-59
2023/07/25 09:53:09;;;;;;;5.78;0.80;;;22.10;68.50;;;;;;5028945;28;20565;-59
2023/07/25 09:55:34;;;;;;;5.05;1.02;;;22.10;67.60;;;;;;5019798;28;20044;-58
2023/07/25 09:58:00;;;;;;;6.45;0.90;;;22.10;67.50;;;;;;5032484;28;20041;-59
2023/07/25 10:00:25;;;;;;;7.07;1.30;;;22.10;67.20;;;;;;5031900;28;20077;-59
2023/07/25 10:02:51;;;;;;;6.75;1.25;;;22.10;67.00;;;;;;5031059;28;20053;-58
2023/07/25 10:05:16;;;;;;;4.40;1.15;;;22.10;66.90;;;;;;5032350;28;20479;-59
2023/07/25 10:07:42;;;;;;;7.82;1.60;;;22.10;66.90;;;;;;5032209;28;20049;-59
2023/07/25 10:10:08;;;;;;;5.45;1.33;;;22.10;66.70;;;;;;5016648;28;20402;-58
2023/07/25 10:12:33;;;;;;;6.45;1.40;;;22.10;66.60;;;;;;5012329;28;20037;-58
2023/07/25 10:14:59;;;;;;;4.93;1.02;;;22.10;66.50;;;;;;5014426;28;20049;-59
2023/07/25 10:17:25;;;;;;;4.35;0.90;;;22.20;66.20;;;;;;5023969;28;20036;-58
2023/07/25 10:19:52;;;;;;;2.63;0.65;;;22.20;65.90;;;;;;5029923;28;20068;-58
2023/07/25 10:22:34;;;;;;;3.90;0.77;;;22.20;65.70;;;;;;5032332;28;20057;-58
2023/07/25 10:24:59;;;;;;;4.65;0.82;;;22.20;65.50;;;;;;5015301;28;20124;-58
2023/07/25 10:27:25;;;;;;;3.60;0.80;;;22.20;65.40;;;;;;5014159;28;20128;-58
2023/07/25 10:29:51;;;;;;;4.90;1.15;;;22.20;65.20;;;;;;5012184;28;20125;-58
2023/07/25 10:32:20;;;;;;;3.53;0.85;;;22.20;65.10;;;;;;5013103;28;20081;-58
2023/07/25 10:35:00;;;;;;;2.85;0.80;;;22.20;65.10;;;;;;5013577;28;20064;-58
2023/07/25 10:37:35;;;;;;;3.00;1.00;;;22.30;65.20;;;;;;5013745;28;20050;-58
2023/07/25 10:40:16;;;;;;;4.97;0.82;;;22.30;65.20;;;;;;5013320;28;20148;-57
2023/07/25 10:42:50;;;;;;;5.90;0.77;;;22.30;65.30;;;;;;5013263;28;20046;-58
2023/07/25 10:45:29;;;;;;;2.58;0.82;;;22.30;65.40;;;;;;5013554;28;20477;-58
2023/07/25 10:47:59;;;;;;;6.38;1.10;;;22.30;65.40;;;;;;5012253;28;20096;-58
2023/07/25 10:50:26;;;;;;;2.33;0.70;;;22.30;65.40;;;;;;5013853;28;20046;-58
2023/07/25 10:52:52;;;;;;;6.40;0.95;;;22.30;65.40;;;;;;5012781;28;20093;-58
2023/07/25 10:55:17;;;;;;;2.88;0.65;;;22.30;65.40;;;;;;5011882;28;20080;-58
2023/07/25 10:58:06;;;;;;;5.53;0.95;;;22.30;65.40;;;;;;5012219;28;20050;-57
2023/07/25 11:00:38;;;;;;;3.63;0.80;;;22.30;65.30;;;;;;5013049;28;20091;-58
2023/07/25 11:03:27;;;;;;;5.50;0.80;;;22.30;65.40;;;;;;5019456;28;20413;-58
2023/07/25 11:05:53;;;;;;;2.58;0.80;;;22.30;65.20;;;;;;5032300;28;20400;-57
2023/07/25 11:08:18;;;;;;;3.78;0.68;;;22.30;65.30;;;;;;5030301;28;20045;-57
2023/07/25 11:10:44;;;;;;;4.05;0.63;;;22.30;65.20;;;;;;5011937;28;20096;-57
2023/07/25 11:13:09;;;;;;;4.20;1.08;;;22.30;65.30;;;;;;4995078;28;20100;-58
2023/07/25 11:15:35;;;;;;;3.78;0.70;;;22.30;65.20;;;;;;5010856;28;20050;-57
2023/07/25 11:18:10;;;;;;;3.40;0.80;;;22.30;65.30;;;;;;5013287;28;20477;-56
2023/07/25 11:20:35;;;;;;;3.83;0.60;;;22.30;65.20;;;;;;4994698;28;20044;-58
2023/07/25 11:23:01;;;;;;;6.97;1.30;;;22.30;65.30;;;;;;5013362;28;20050;-58
2023/07/25 11:25:26;;;;;;;1.10;0.63;;;22.30;65.40;;;;;;5013188;28;20129;-57
2023/07/25 11:27:52;;;;;;;6.90;1.05;;;22.30;65.40;;;;;;5012264;28;20050;-57
2023/07/25 11:30:21;;;;;;;2.53;0.90;;;22.30;65.40;;;;;;4995604;28;20493;-58
2023/07/25 11:32:53;;;;;;;3.13;0.80;;;22.30;65.40;;;;;;5012484;28;20177;-57
2023/07/25 11:35:19;;;;;;;2.35;0.70;;;22.30;65.40;;;;;;5012714;28;20038;-57
2023/07/25 11:37:45;;;;;;;3.35;0.70;;;22.30;65.40;;;;;;5028735;28;20045;-58
2023/07/25 11:40:15;;;;;;;5.97;0.90;;;22.30;65.50;;;;;;5032324;28;20052;-58
2023/07/25 11:42:45;;;;;;;3.13;0.70;;;22.30;65.50;;;;;;5032052;28;20053;-59
2023/07/25 11:45:11;;;;;;;2.10;0.50;;;22.30;65.50;;;;;;5032307;28;20064;-58
2023/07/25 11:47:38;;;;;;;4.03;0.82;;;22.30;65.50;;;;;;5031882;28;20439;-58
2023/07/25 11:50:05;;;;;;;2.35;0.70;;;22.30;65.50;;;;;;5030760;28;20069;-58
2023/07/25 11:52:31;;;;;;;1.77;0.65;;;22.30;65.40;;;;;;5031238;28;20056;-58
2023/07/25 11:54:57;;;;;;;3.10;0.70;;;22.30;65.40;;;;;;5030815;28;20045;-58
2023/07/25 11:57:22;;;;;;;4.10;0.80;;;22.30;65.50;;;;;;5030836;28;20116;-58
2023/07/25 11:59:51;;;;;;;3.20;0.68;;;22.40;65.50;;;;;;5030634;28;20045;-58
2023/07/25 12:02:18;;;;;;;3.55;0.50;;;22.40;65.40;;;;;;5030420;28;20037;-58
2023/07/25 12:04:44;;;;;;;3.50;0.60;;;22.40;65.40;;;;;;5031460;28;20045;-58
2023/07/25 12:07:11;;;;;;;2.45;0.50;;;22.40;65.40;;;;;;5032401;28;20048;-58
2023/07/25 12:09:36;;;;;;;2.75;0.70;;;22.40;65.40;;;;;;5033459;28;20132;-58
2023/07/25 12:12:02;;;;;;;3.28;0.77;;;22.40;65.40;;;;;;5035524;28;20481;-58
2023/07/25 12:14:28;;;;;;;3.85;0.60;;;22.40;65.50;;;;;;5036049;28;20048;-58
2023/07/25 12:16:54;;;;;;;2.92;0.50;;;22.40;65.40;;;;;;5033854;28;20405;-57
2023/07/25 12:19:21;;;;;;;2.92;0.70;;;22.40;65.40;;;;;;5036243;28;20481;-57
2023/07/25 12:21:46;;;;;;;1.95;0.50;;;22.40;65.40;;;;;;5035551;28;20049;-57
2023/07/25 12:24:13;;;;;;;3.42;0.77;;;22.40;65.20;;;;;;5035424;28;20047;-57
2023/07/25 12:26:42;;;;;;;1.65;0.60;;;22.40;64.60;;;;;;5036061;28;20049;-58
2023/07/25 12:29:15;;;;;;;2.53;0.52;;;22.30;63.60;;;;;;5034245;28;20052;-59
2023/07/25 12:31:41;;;;;;;2.22;0.60;;;22.30;62.80;;;;;;5035316;28;20049;-58
2023/07/25 12:34:06;;;;;;;2.95;0.50;;;22.30;62.50;;;;;;5034472;28;20118;-57
2023/07/25 12:36:32;;;;;;;4.13;0.70;;;22.30;62.00;;;;;;5035713;28;20033;-58
2023/07/25 12:38:57;;;;;;;3.30;0.70;;;22.30;61.40;;;;;;5035010;28;20465;-58
2023/07/25 12:41:24;;;;;;;3.58;0.55;;;22.30;60.60;;;;;;5035875;28;20046;-58
2023/07/25 12:43:49;;;;;;;3.67;0.50;;;22.20;60.40;;;;;;5034941;28;20041;-58